CBQ2 weather

Fort Langley Airport
Fort Langley, British Columbia, Canada

Public forecast

Using degrees Celsius for public forecast. Weather courtesy of forecast.io.

METAR (pilot weather report)

Closest report is Abbotsford Airport, 11.4 nm (21.2 km) SE. Retrieved 2019/07/17 22:00 UTC (16 minutes ago):

CYXX 172200Z 17013G18KT 3SM -SHRA SCT008 OVC040 17/16 A2984 RMK SF3SC5 SLP108 DENSITY ALT 600FT

TAF (pilot weather forecast)

Closest forecast is Abbotsford Airport, 11.4 nm (21.2 km) SE. Retrieved 2019/07/17 18:42 UTC (4 hours ago):

TAF CYXX 171738Z 1718/1818 22006KT P6SM -RA FEW012 OVC040 TEMPO 1718/1721 3SM -RA BR SCT006 OVC012 BECMG 1718/1720 19015G25KT FM172100 19015G30KT P6SM OVC030 TEMPO 1721/1806 5SM -SHRA BR OVC015 FM180600 20007KT 6SM -SHRA BR BKN020 OVC040 FM181500 19006KT P6SM BKN050 RMK NXT FCST BY 180000Z